Aérodrome :
LOGIN :

S'inscrire | Disclaimer

   EN    FR    IT 

 










Légende :    VFR   VFR Marginal   IFR   IFR Intensif   IFR Très Intensif
Visi : 
Plafond : 
>= 8 km
>= 3000ft
5 à 8 km
1000 à 3000 ft
1500m à 5 km
500 à 1000 ft
800 à 1500m
200 à 500 ft
< 800m
< 200 ft
Symboles :   Orages  Brouillard  Fortes neiges  Fortes précipitations  Vent > 20 kt
SIGMETs :   Divers  Orages  Givrage  Turbulence  Onde Orograph.  Cendres Volcan.






- Altitude de l'aérodrome : 297 ft
- Code IATA : BBU


LRBS - Bucarest - Baneasa Aurel Vlaicu

DERNIER METAR :
  • 171430Z 26008KT CAVOK 13/01 Q1023 NOSIG

METARs EXPIRÉS :
  • 171400Z 23007KT CAVOK 14/01 Q1023 NOSIG
  • 171330Z 23008KT CAVOK 13/01 Q1024 NOSIG
  • 171300Z 23009KT CAVOK 13/01 Q1024 NOSIG
  • 171230Z 25006KT 220V290 CAVOK 13/02 Q1024 NOSIG
  • 171200Z 25008KT CAVOK 13/01 Q1025 NOSIG

TAF TAF LRBS
Valide du 17 à 12h jusqu'au 18 à 12h UTC


171100Z 1712/1812 23010KT CAVOK
BECMG 1717/1719 VRB04KT
TEMPO 1801/1806 3000 BR
BECMG 1808/1810 25010KT



MET'MAP, la Météo Aéronautique d'un coup d'oeil ! - Copyright ORBIFLY Décembre 2007 - Disclaimer

ORBIFLY MET'MAP TEAM :

Programmation & Développement : Alexandra Zaïnal
Sur une idée originale de : Baudouin d'Aumeries
Assistance à la programmation : Marc-Olivier Méhu
Soutien technique & logistique : Manuel Goepfert

Contact : metmap@orbifly.com




SOURCES & CREDITS :

   NOAA